createdAt,value
2017-09-02T00:00:06.644Z,1015.64
2017-09-02T00:02:08.489Z,1015.67
2017-09-02T00:04:10.378Z,1015.70
2017-09-02T00:06:12.314Z,1015.72
2017-09-02T00:08:14.202Z,1015.72
2017-09-02T00:10:16.060Z,1015.75
2017-09-02T00:12:17.997Z,1015.75
2017-09-02T00:14:19.936Z,1015.69
2017-09-02T00:16:21.895Z,1015.70
2017-09-02T00:18:23.758Z,1015.70
2017-09-02T00:20:25.337Z,1015.62
2017-09-02T00:22:27.231Z,1015.59
2017-09-02T00:24:29.045Z,1015.59
2017-09-02T00:26:30.887Z,1015.61
2017-09-02T00:28:32.692Z,1015.63
2017-09-02T00:30:34.488Z,1015.60
2017-09-02T00:32:36.384Z,1015.62
2017-09-02T00:34:38.218Z,1015.60
2017-09-02T00:36:39.962Z,1015.60
2017-09-02T00:38:41.597Z,1015.61
2017-09-02T00:40:43.304Z,1015.61
2017-09-02T00:42:45.125Z,1015.63
2017-09-02T00:44:46.906Z,1015.61
2017-09-02T00:46:48.500Z,1015.62
2017-09-02T00:48:50.268Z,1015.57
2017-09-02T00:50:52.032Z,1015.59
2017-09-02T00:52:53.970Z,1015.59
2017-09-02T00:54:55.689Z,1015.63
2017-09-02T00:56:57.614Z,1015.65
2017-09-02T00:58:59.472Z,1015.64
2017-09-02T01:01:01.260Z,1015.63
2017-09-02T01:03:03.173Z,1015.58
2017-09-02T01:05:04.868Z,1015.63
2017-09-02T01:07:06.759Z,1015.62
2017-09-02T01:09:08.420Z,1015.61
2017-09-02T01:11:10.398Z,1015.60
2017-09-02T01:13:12.055Z,1015.62
2017-09-02T01:15:13.642Z,1015.62
2017-09-02T01:17:15.454Z,1015.63
2017-09-02T01:19:17.226Z,1015.63
2017-09-02T01:21:19.043Z,1015.63
2017-09-02T01:23:20.877Z,1015.67
2017-09-02T01:25:22.691Z,1015.65
2017-09-02T01:27:24.382Z,1015.66
2017-09-02T01:29:26.225Z,1015.64
2017-09-02T01:31:28.097Z,1015.67
2017-09-02T01:33:29.980Z,1015.63
2017-09-02T01:35:31.720Z,1015.64
2017-09-02T01:37:33.550Z,1015.59
2017-09-02T01:39:35.498Z,1015.58
2017-09-02T01:41:37.150Z,1015.58
2017-09-02T01:43:39.132Z,1015.55
2017-09-02T01:45:41.106Z,1015.55
2017-09-02T01:47:42.997Z,1015.56
2017-09-02T01:49:44.986Z,1015.56
2017-09-02T01:51:46.832Z,1015.56
2017-09-02T01:53:48.590Z,1015.58
2017-09-02T01:55:50.360Z,1015.50
2017-09-02T01:57:52.370Z,1015.53
2017-09-02T01:59:54.042Z,1015.53
2017-09-02T02:01:56.000Z,1015.52
2017-09-02T02:03:57.683Z,1015.55
2017-09-02T02:05:59.370Z,1015.51
2017-09-02T02:08:01.122Z,1015.51
2017-09-02T02:10:02.871Z,1015.55
2017-09-02T02:12:04.535Z,1015.55
2017-09-02T02:14:06.254Z,1015.56
2017-09-02T02:16:07.955Z,1015.58
2017-09-02T02:18:09.803Z,1015.54
2017-09-02T02:20:11.637Z,1015.56
2017-09-02T02:22:13.310Z,1015.57
2017-09-02T02:24:14.953Z,1015.55
2017-09-02T02:26:16.593Z,1015.53
2017-09-02T02:28:18.442Z,1015.54
2017-09-02T02:30:20.402Z,1015.51
2017-09-02T02:32:22.184Z,1015.48
2017-09-02T02:34:24.177Z,1015.47
2017-09-02T02:36:26.156Z,1015.50
2017-09-02T02:38:28.017Z,1015.50
2017-09-02T02:40:29.929Z,1015.48
2017-09-02T02:42:31.619Z,1015.48
2017-09-02T02:44:33.511Z,1015.53
2017-09-02T02:46:35.386Z,1015.53
2017-09-02T02:48:37.219Z,1015.57
2017-09-02T02:50:38.851Z,1015.56
2017-09-02T02:52:40.825Z,1015.56
2017-09-02T02:54:42.496Z,1015.62
2017-09-02T02:56:44.443Z,1015.59
2017-09-02T02:58:46.056Z,1015.64
2017-09-02T03:00:47.874Z,1015.57
2017-09-02T03:02:49.769Z,1015.54
2017-09-02T03:04:51.563Z,1015.54
2017-09-02T03:06:53.557Z,1015.56
2017-09-02T03:08:55.508Z,1015.49
2017-09-02T03:10:57.483Z,1015.51
2017-09-02T03:12:59.285Z,1015.48
2017-09-02T03:15:01.161Z,1015.50
2017-09-02T03:17:02.979Z,1015.49
2017-09-02T03:19:04.822Z,1015.47
2017-09-02T03:21:06.723Z,1015.51
2017-09-02T03:23:08.389Z,1015.49
2017-09-02T03:25:10.351Z,1015.52
2017-09-02T03:27:12.449Z,1015.50
2017-09-02T03:29:14.158Z,1015.47
2017-09-02T03:31:16.039Z,1015.49
2017-09-02T03:33:18.054Z,1015.47
2017-09-02T03:35:19.932Z,1015.48
2017-09-02T03:37:21.692Z,1015.46
2017-09-02T03:39:23.537Z,1015.47
2017-09-02T03:41:25.445Z,1015.46
2017-09-02T03:43:27.280Z,1015.47
2017-09-02T03:45:29.041Z,1015.44
2017-09-02T03:47:30.685Z,1015.42
2017-09-02T03:49:32.663Z,1015.44
2017-09-02T03:51:34.559Z,1015.40
2017-09-02T03:53:36.363Z,1015.42
2017-09-02T03:55:38.169Z,1015.40
2017-09-02T03:57:39.896Z,1015.41
2017-09-02T03:59:41.700Z,1015.40
2017-09-02T04:01:43.540Z,1015.36
2017-09-02T04:03:45.326Z,1015.40
2017-09-02T04:05:47.297Z,1015.40
2017-09-02T04:07:49.144Z,1015.38
2017-09-02T04:09:50.985Z,1015.43
2017-09-02T04:11:52.831Z,1015.42
2017-09-02T04:13:54.643Z,1015.44
2017-09-02T04:15:56.308Z,1015.39
2017-09-02T04:17:58.155Z,1015.42
2017-09-02T04:19:59.988Z,1015.45
2017-09-02T04:22:01.746Z,1015.44
2017-09-02T04:24:03.430Z,1015.47
2017-09-02T04:26:05.584Z,1015.47
2017-09-02T04:28:07.585Z,1015.48
2017-09-02T04:30:09.303Z,1015.48
2017-09-02T04:32:10.925Z,1015.50
2017-09-02T04:34:12.522Z,1015.54
2017-09-02T04:36:14.264Z,1015.54
2017-09-02T04:38:15.896Z,1015.58
2017-09-02T04:40:17.624Z,1015.59
2017-09-02T04:42:19.641Z,1015.63
2017-09-02T04:44:21.569Z,1015.62
2017-09-02T04:46:23.357Z,1015.65
2017-09-02T04:48:25.021Z,1015.65
2017-09-02T04:50:26.879Z,1015.62
2017-09-02T04:52:28.749Z,1015.63
2017-09-02T04:54:30.520Z,1015.66
2017-09-02T04:56:32.230Z,1015.65
2017-09-02T04:58:33.853Z,1015.67
2017-09-02T05:00:36.045Z,1015.67
2017-09-02T05:02:38.023Z,1015.66
2017-09-02T05:04:39.847Z,1015.66
2017-09-02T05:06:41.806Z,1015.69
2017-09-02T05:08:43.681Z,1015.71
2017-09-02T05:10:45.633Z,1015.69
2017-09-02T05:12:47.438Z,1015.68
2017-09-02T05:14:49.271Z,1015.70
2017-09-02T05:16:51.160Z,1015.72
2017-09-02T05:18:52.983Z,1015.68
2017-09-02T05:20:55.044Z,1015.76
2017-09-02T05:22:56.828Z,1015.75
2017-09-02T05:24:58.607Z,1015.74
2017-09-02T05:27:00.615Z,1015.75
2017-09-02T05:29:02.289Z,1015.76
2017-09-02T05:31:04.085Z,1015.72
2017-09-02T05:33:05.794Z,1015.72
2017-09-02T05:35:07.878Z,1015.73
2017-09-02T05:37:09.729Z,1015.68
2017-09-02T05:39:11.510Z,1015.69
2017-09-02T05:41:13.346Z,1015.66
2017-09-02T05:43:15.260Z,1015.72
2017-09-02T05:45:17.134Z,1015.70
2017-09-02T05:47:18.812Z,1015.75
2017-09-02T05:49:20.711Z,1015.72
2017-09-02T05:51:23.095Z,1015.78
2017-09-02T05:53:24.860Z,1015.74
2017-09-02T05:55:26.681Z,1015.74
2017-09-02T05:57:28.339Z,1015.75
2017-09-02T05:59:29.936Z,1015.77
2017-09-02T06:01:31.511Z,1015.73
2017-09-02T06:03:33.188Z,1015.75
2017-09-02T06:05:35.029Z,1015.73
2017-09-02T06:07:37.017Z,1015.72
2017-09-02T06:09:38.924Z,1015.71
2017-09-02T06:11:40.703Z,1015.70
2017-09-02T06:13:42.668Z,1015.67
2017-09-02T06:15:44.512Z,1015.68
2017-09-02T06:17:46.293Z,1015.73
2017-09-02T06:19:47.988Z,1015.77
2017-09-02T06:21:49.969Z,1015.82
2017-09-02T06:23:51.695Z,1015.79
2017-09-02T06:25:53.516Z,1015.78
2017-09-02T06:27:55.261Z,1015.78
2017-09-02T06:29:57.187Z,1015.85
2017-09-02T06:31:58.947Z,1015.85
2017-09-02T06:34:00.883Z,1015.84
2017-09-02T06:36:02.813Z,1015.85
2017-09-02T06:38:04.624Z,1015.88
2017-09-02T06:40:06.449Z,1015.89
2017-09-02T06:42:08.451Z,1015.91
2017-09-02T06:44:10.165Z,1015.89
2017-09-02T06:46:11.734Z,1015.92
2017-09-02T06:48:13.639Z,1015.93
2017-09-02T06:50:15.565Z,1015.92
2017-09-02T06:52:17.397Z,1015.96
2017-09-02T06:54:19.239Z,1015.98
2017-09-02T06:56:20.852Z,1015.97
2017-09-02T06:58:22.630Z,1015.93
2017-09-02T07:00:24.330Z,1015.94
2017-09-02T07:02:26.171Z,1015.92
2017-09-02T07:04:27.826Z,1015.90
2017-09-02T07:06:29.343Z,1015.88
2017-09-02T07:08:30.853Z,1015.89
2017-09-02T07:10:32.338Z,1015.86
2017-09-02T07:12:33.860Z,1015.85
2017-09-02T07:14:35.349Z,1015.85
2017-09-02T07:16:37.097Z,1015.90
2017-09-02T07:18:38.780Z,1015.88
2017-09-02T07:20:40.491Z,1015.89
2017-09-02T07:22:42.354Z,1015.93
2017-09-02T07:24:43.987Z,1015.92
2017-09-02T07:26:46.048Z,1015.92
2017-09-02T07:28:47.666Z,1015.91
2017-09-02T07:30:49.239Z,1015.92
2017-09-02T07:32:51.162Z,1015.97
2017-09-02T07:34:53.036Z,1015.96
2017-09-02T07:36:54.555Z,1015.98
2017-09-02T07:38:56.145Z,1016.01
2017-09-02T07:40:57.654Z,1016.03
2017-09-02T07:42:59.327Z,1016.00
2017-09-02T07:45:00.839Z,1016.05
2017-09-02T07:47:02.904Z,1016.04
2017-09-02T07:49:04.438Z,1016.06
2017-09-02T07:51:05.939Z,1016.03
2017-09-02T07:53:07.486Z,1016.03
2017-09-02T07:55:09.131Z,1016.08
2017-09-02T07:57:52.931Z,1016.07
2017-09-02T07:59:54.701Z,1016.14
2017-09-02T08:01:56.122Z,1016.12
2017-09-02T08:03:59.062Z,1016.07
2017-09-02T08:06:00.867Z,1016.10
2017-09-02T08:08:02.316Z,1016.09
2017-09-02T08:10:03.795Z,1016.08
2017-09-02T08:12:46.390Z,1016.07
2017-09-02T08:14:47.800Z,1016.08
2017-09-02T08:16:49.222Z,1016.07
2017-09-02T08:18:50.649Z,1016.02
2017-09-02T08:20:52.070Z,1016.05
2017-09-02T08:22:57.637Z,1016.03
2017-09-02T08:24:59.499Z,1016.04
2017-09-02T08:27:01.348Z,1016.03
2017-09-02T08:29:43.901Z,1016.03
2017-09-02T08:31:48.292Z,1015.96
2017-09-02T08:33:49.772Z,1015.92
2017-09-02T08:35:51.376Z,1015.94
2017-09-02T08:37:53.460Z,1015.92
2017-09-02T08:39:54.940Z,1015.94
2017-09-02T08:41:56.486Z,1015.94
2017-09-02T08:43:58.308Z,1015.99
2017-09-02T08:46:00.022Z,1015.97
2017-09-02T08:48:01.620Z,1016.02
2017-09-02T08:50:03.205Z,1016.06
2017-09-02T08:52:04.705Z,1016.12
2017-09-02T08:54:06.228Z,1016.12
2017-09-02T08:56:07.764Z,1016.14
2017-09-02T08:58:09.578Z,1016.13
2017-09-02T09:00:11.277Z,1016.12
2017-09-02T09:02:13.714Z,1016.14
2017-09-02T09:04:15.224Z,1016.12
2017-09-02T09:06:17.041Z,1016.15
2017-09-02T09:08:18.866Z,1016.09
2017-09-02T09:10:20.382Z,1016.10
2017-09-02T09:12:22.227Z,1016.14
2017-09-02T09:14:23.750Z,1016.11
2017-09-02T09:16:25.244Z,1016.11
2017-09-02T09:18:26.884Z,1016.12
2017-09-02T09:20:29.459Z,1016.09
2017-09-02T09:22:31.224Z,1016.07
2017-09-02T09:24:32.686Z,1016.05
2017-09-02T09:26:35.361Z,1016.08
2017-09-02T09:28:36.899Z,1016.08
2017-09-02T09:30:38.458Z,1016.07
2017-09-02T09:32:39.996Z,1016.14
2017-09-02T09:34:41.486Z,1016.13
2017-09-02T09:36:42.985Z,1016.11
2017-09-02T09:38:44.737Z,1016.14
2017-09-02T09:40:46.271Z,1016.12
2017-09-02T09:42:47.884Z,1016.11
2017-09-02T09:44:49.355Z,1016.04
2017-09-02T09:46:51.573Z,1016.08
2017-09-02T09:48:53.372Z,1016.09
2017-09-02T09:50:54.896Z,1016.05
2017-09-02T09:52:56.588Z,1016.08
2017-09-02T09:54:58.161Z,1016.04
2017-09-02T09:56:59.717Z,1016.06
2017-09-02T09:59:01.315Z,1015.98
2017-09-02T10:01:02.848Z,1016.02
2017-09-02T10:03:04.406Z,1016.04
2017-09-02T10:05:05.913Z,1016.01
2017-09-02T10:07:07.511Z,1016.04
2017-09-02T10:09:09.140Z,1016.03
2017-09-02T10:11:10.635Z,1015.99
2017-09-02T10:13:12.190Z,1016.02
2017-09-02T10:15:13.742Z,1016.02
2017-09-02T10:17:15.251Z,1015.98
2017-09-02T10:19:16.783Z,1015.97
2017-09-02T10:21:18.269Z,1015.94
2017-09-02T10:23:19.777Z,1015.89
2017-09-02T10:25:21.322Z,1015.89
2017-09-02T10:27:22.826Z,1015.82
2017-09-02T10:29:24.323Z,1015.82
2017-09-02T10:31:25.873Z,1015.80
2017-09-02T10:33:27.448Z,1015.86
2017-09-02T10:35:29.089Z,1015.83
2017-09-02T10:37:30.925Z,1015.81
2017-09-02T10:39:32.515Z,1015.77
2017-09-02T10:41:34.045Z,1015.80
2017-09-02T10:43:35.618Z,1015.77
2017-09-02T10:45:37.144Z,1015.79
2017-09-02T10:47:38.661Z,1015.80
2017-09-02T10:49:40.150Z,1015.81
2017-09-02T10:51:41.704Z,1015.82
2017-09-02T10:53:43.219Z,1015.77
2017-09-02T10:55:45.550Z,1015.73
2017-09-02T10:57:47.481Z,1015.73
2017-09-02T10:59:50.413Z,1015.71
2017-09-02T11:02:33.637Z,1015.69
2017-09-02T11:04:35.103Z,1015.65
2017-09-02T11:06:36.835Z,1015.68
2017-09-02T11:08:39.018Z,1015.64
2017-09-02T11:10:40.527Z,1015.61
2017-09-02T11:12:42.187Z,1015.59
2017-09-02T11:14:43.928Z,1015.59
2017-09-02T11:16:45.805Z,1015.57
2017-09-02T11:18:47.510Z,1015.58
2017-09-02T11:20:49.454Z,1015.57
2017-09-02T11:22:51.324Z,1015.53
2017-09-02T11:24:53.115Z,1015.55
2017-09-02T11:26:54.983Z,1015.55
2017-09-02T11:28:56.960Z,1015.57
2017-09-02T11:30:58.718Z,1015.53
2017-09-02T11:33:00.521Z,1015.57
2017-09-02T11:35:02.695Z,1015.55
2017-09-02T11:37:04.572Z,1015.52
2017-09-02T11:39:06.347Z,1015.52
2017-09-02T11:41:08.276Z,1015.47
2017-09-02T11:43:10.084Z,1015.42
2017-09-02T11:45:12.539Z,1015.40
2017-09-02T11:47:14.092Z,1015.37
2017-09-02T11:49:15.796Z,1015.36
2017-09-02T11:51:17.357Z,1015.37
2017-09-02T11:53:18.926Z,1015.41
2017-09-02T11:55:21.424Z,1015.39
2017-09-02T11:57:23.356Z,1015.37
2017-09-02T11:59:24.870Z,1015.39
2017-09-02T12:01:26.657Z,1015.41
2017-09-02T12:03:28.427Z,1015.40
2017-09-02T12:05:30.356Z,1015.41
2017-09-02T12:07:32.125Z,1015.40
2017-09-02T12:10:13.997Z,1015.45
2017-09-02T12:12:15.685Z,1015.47
2017-09-02T12:14:17.306Z,1015.43
2017-09-02T12:16:19.005Z,1015.37
2017-09-02T12:18:20.442Z,1015.37
2017-09-02T12:20:21.942Z,1015.34
2017-09-02T12:22:23.759Z,1015.27
2017-09-02T12:24:25.666Z,1015.24
2017-09-02T12:27:08.417Z,1015.24
2017-09-02T12:29:10.196Z,1015.21
2017-09-02T12:31:12.268Z,1015.23
2017-09-02T12:33:13.807Z,1015.25
2017-09-02T12:35:15.790Z,1015.23
2017-09-02T12:37:17.580Z,1015.16
2017-09-02T12:39:19.318Z,1015.12
2017-09-02T12:41:21.081Z,1015.15
2017-09-02T12:43:22.873Z,1015.17
2017-09-02T12:45:24.715Z,1015.15
2017-09-02T12:47:26.204Z,1015.19
2017-09-02T12:49:27.715Z,1015.22
2017-09-02T12:51:29.250Z,1015.16
2017-09-02T12:53:30.664Z,1015.22
2017-09-02T12:55:32.099Z,1015.19
2017-09-02T12:57:33.528Z,1015.21
2017-09-02T12:59:34.965Z,1015.20
2017-09-02T13:01:36.392Z,1015.18
2017-09-02T13:03:37.824Z,1015.21
2017-09-02T13:05:39.255Z,1015.16
2017-09-02T13:07:40.808Z,1015.19
2017-09-02T13:09:42.311Z,1015.20
2017-09-02T13:11:43.719Z,1015.18
2017-09-02T13:13:45.159Z,1015.23
2017-09-02T13:15:46.591Z,1015.25
2017-09-02T13:17:48.130Z,1015.23
2017-09-02T13:19:49.556Z,1015.33
2017-09-02T13:21:50.985Z,1015.32
2017-09-02T13:23:52.447Z,1015.34
2017-09-02T13:25:53.875Z,1015.36
2017-09-02T13:27:55.298Z,1015.38
2017-09-02T13:29:56.726Z,1015.33
2017-09-02T13:31:58.182Z,1015.35
2017-09-02T13:33:59.615Z,1015.29
2017-09-02T13:36:01.097Z,1015.26
2017-09-02T13:38:02.552Z,1015.23
2017-09-02T13:40:04.042Z,1015.23
2017-09-02T13:42:05.492Z,1015.23
2017-09-02T13:44:06.959Z,1015.19
2017-09-02T13:46:08.408Z,1015.19
2017-09-02T13:48:09.870Z,1015.18
2017-09-02T13:50:11.297Z,1015.18
2017-09-02T13:52:12.722Z,1015.14
2017-09-02T13:54:14.139Z,1015.11
2017-09-02T13:56:15.573Z,1015.09
2017-09-02T13:58:16.998Z,1015.10
2017-09-02T14:00:19.698Z,1015.10
2017-09-02T14:02:21.419Z,1015.08
2017-09-02T14:04:22.899Z,1015.12
2017-09-02T14:06:24.354Z,1015.14
2017-09-02T14:08:25.756Z,1015.10
2017-09-02T14:10:28.247Z,1015.11
2017-09-02T14:12:30.284Z,1015.06
2017-09-02T14:14:32.082Z,1015.06
2017-09-02T14:17:14.741Z,1015.03
2017-09-02T14:19:16.155Z,1015.02
2017-09-02T14:21:17.592Z,1015.01
2017-09-02T14:23:19.019Z,1014.99
2017-09-02T14:25:20.454Z,1014.98
2017-09-02T14:27:21.883Z,1014.96
2017-09-02T14:29:23.639Z,1014.95
2017-09-02T14:31:25.058Z,1014.94
2017-09-02T14:33:26.581Z,1014.93
2017-09-02T14:35:28.030Z,1014.92
2017-09-02T14:37:29.446Z,1014.92
2017-09-02T14:39:31.002Z,1014.92
2017-09-02T14:41:32.428Z,1014.94
2017-09-02T14:43:33.855Z,1014.97
2017-09-02T14:45:35.289Z,1014.98
2017-09-02T14:47:36.713Z,1014.96
2017-09-02T14:49:38.141Z,1014.94
2017-09-02T14:51:39.567Z,1014.91
2017-09-02T14:53:41.040Z,1014.89
2017-09-02T14:55:42.476Z,1014.87
2017-09-02T14:57:43.893Z,1014.90
2017-09-02T14:59:45.326Z,1014.92
2017-09-02T15:01:46.744Z,1014.92
2017-09-02T15:03:48.173Z,1014.92
2017-09-02T15:05:49.616Z,1014.95
2017-09-02T15:07:51.046Z,1014.89
2017-09-02T15:09:52.469Z,1014.90
2017-09-02T15:11:53.898Z,1014.88
2017-09-02T15:13:55.333Z,1014.87
2017-09-02T15:15:56.757Z,1014.87
2017-09-02T15:17:58.184Z,1014.83
2017-09-02T15:19:59.610Z,1014.84
2017-09-02T15:22:01.038Z,1014.88
2017-09-02T15:24:02.477Z,1014.85
2017-09-02T15:26:03.982Z,1014.79
2017-09-02T15:28:05.555Z,1014.78
2017-09-02T15:30:07.016Z,1014.78
2017-09-02T15:32:08.455Z,1014.76
2017-09-02T15:34:09.881Z,1014.77
2017-09-02T15:36:11.303Z,1014.72
2017-09-02T15:38:12.729Z,1014.71
2017-09-02T15:40:14.163Z,1014.68
2017-09-02T15:42:15.578Z,1014.60
2017-09-02T15:44:17.006Z,1014.62
2017-09-02T15:46:18.439Z,1014.62
2017-09-02T15:48:19.869Z,1014.62
2017-09-02T15:50:21.289Z,1014.61
2017-09-02T15:52:22.716Z,1014.63
2017-09-02T15:54:24.162Z,1014.62
2017-09-02T15:56:25.623Z,1014.62
2017-09-02T15:58:27.134Z,1014.65
2017-09-02T16:00:28.679Z,1014.62
2017-09-02T16:02:30.196Z,1014.65
2017-09-02T16:04:31.640Z,1014.62
2017-09-02T16:06:33.160Z,1014.63
2017-09-02T16:08:34.671Z,1014.60
2017-09-02T16:10:36.218Z,1014.58
2017-09-02T16:12:37.724Z,1014.65
2017-09-02T16:14:39.251Z,1014.64
2017-09-02T16:16:40.824Z,1014.64
2017-09-02T16:18:42.322Z,1014.67
2017-09-02T16:20:43.785Z,1014.66
2017-09-02T16:22:45.320Z,1014.63
2017-09-02T16:24:46.901Z,1014.64
2017-09-02T16:26:48.454Z,1014.65
2017-09-02T16:28:49.958Z,1014.65
2017-09-02T16:30:51.416Z,1014.65
2017-09-02T16:32:52.925Z,1014.68
2017-09-02T16:34:54.755Z,1014.72
2017-09-02T16:36:56.262Z,1014.67
2017-09-02T16:38:57.758Z,1014.70
2017-09-02T16:40:59.252Z,1014.66
2017-09-02T16:43:00.749Z,1014.70
2017-09-02T16:45:02.186Z,1014.73
2017-09-02T16:47:03.989Z,1014.71
2017-09-02T16:49:05.484Z,1014.72
2017-09-02T16:51:06.992Z,1014.73
2017-09-02T16:53:08.503Z,1014.70
2017-09-02T16:55:10.013Z,1014.79
2017-09-02T16:57:11.489Z,1014.73
2017-09-02T16:59:13.003Z,1014.76
2017-09-02T17:01:14.504Z,1014.74
2017-09-02T17:03:15.993Z,1014.74
2017-09-02T17:05:17.529Z,1014.77
2017-09-02T17:07:19.036Z,1014.75
2017-09-02T17:09:20.548Z,1014.79
2017-09-02T17:11:21.986Z,1014.78
2017-09-02T17:13:23.502Z,1014.84
2017-09-02T17:15:24.998Z,1014.83
2017-09-02T17:17:26.532Z,1014.87
2017-09-02T17:19:28.120Z,1014.86
2017-09-02T17:21:29.599Z,1014.84
2017-09-02T17:23:31.223Z,1014.85
2017-09-02T17:25:32.706Z,1014.89
2017-09-02T17:27:34.247Z,1014.90
2017-09-02T17:29:36.248Z,1014.91
2017-09-02T17:31:37.749Z,1014.91
2017-09-02T17:33:40.201Z,1014.91
2017-09-02T17:35:41.812Z,1014.93
2017-09-02T17:37:43.342Z,1014.93
2017-09-02T17:39:44.856Z,1014.92
2017-09-02T17:41:46.738Z,1014.92
2017-09-02T17:43:48.706Z,1014.91
2017-09-02T17:45:50.534Z,1014.91
2017-09-02T17:47:52.029Z,1014.92
2017-09-02T17:49:53.976Z,1014.92
2017-09-02T17:51:55.611Z,1014.94
2017-09-02T17:53:57.104Z,1014.99
2017-09-02T17:55:58.924Z,1014.96
2017-09-02T17:58:00.676Z,1014.98
2017-09-02T18:00:02.210Z,1014.97
2017-09-02T18:02:04.430Z,1014.99
2017-09-02T18:04:06.263Z,1015.00
2017-09-02T18:06:07.818Z,1015.01
2017-09-02T18:08:09.700Z,1015.01
2017-09-02T18:10:11.517Z,1015.03
2017-09-02T18:12:13.058Z,1015.04
2017-09-02T18:14:14.561Z,1015.02
2017-09-02T18:16:16.065Z,1015.04
2017-09-02T18:18:18.128Z,1015.07
2017-09-02T18:20:19.914Z,1015.09
2017-09-02T18:22:21.809Z,1015.11
2017-09-02T18:24:24.714Z,1015.14
2017-09-02T18:26:26.404Z,1015.09
2017-09-02T18:28:27.926Z,1015.11
2017-09-02T18:30:29.426Z,1015.15
2017-09-02T18:32:30.984Z,1015.15
2017-09-02T18:34:33.731Z,1015.07
2017-09-02T18:36:35.358Z,1015.04
2017-09-02T18:38:37.162Z,1015.00
2017-09-02T18:40:38.796Z,1015.00
2017-09-02T18:42:40.601Z,1015.01
2017-09-02T18:44:46.290Z,1015.04
2017-09-02T18:46:50.657Z,1015.03
2017-09-02T18:48:52.968Z,1015.07
2017-09-02T18:50:56.583Z,1015.10
2017-09-02T18:52:58.331Z,1015.12
2017-09-02T18:55:00.254Z,1015.14
2017-09-02T18:57:01.833Z,1015.16
2017-09-02T18:59:03.725Z,1015.11
2017-09-02T19:01:05.251Z,1015.11
2017-09-02T19:03:07.002Z,1015.08
2017-09-02T19:05:08.493Z,1015.09
2017-09-02T19:07:10.566Z,1015.11
2017-09-02T19:09:12.376Z,1015.11
2017-09-02T19:11:14.113Z,1015.12
2017-09-02T19:13:15.797Z,1015.12
2017-09-02T19:15:17.638Z,1015.17
2017-09-02T19:17:20.414Z,1015.20
2017-09-02T19:19:22.017Z,1015.19
2017-09-02T19:21:23.551Z,1015.17
2017-09-02T19:23:25.319Z,1015.14
2017-09-02T19:25:26.914Z,1015.15
2017-09-02T19:27:28.952Z,1015.14
2017-09-02T19:29:30.977Z,1015.15
2017-09-02T19:31:32.791Z,1015.19
2017-09-02T19:33:34.304Z,1015.17
2017-09-02T19:35:35.809Z,1015.22
2017-09-02T19:37:37.314Z,1015.18
2017-09-02T19:39:38.846Z,1015.24
2017-09-02T19:41:40.442Z,1015.27
2017-09-02T19:43:41.935Z,1015.32
2017-09-02T19:45:43.598Z,1015.31
2017-09-02T19:47:45.560Z,1015.27
2017-09-02T19:49:47.097Z,1015.28
2017-09-02T19:51:48.898Z,1015.33
2017-09-02T19:53:51.282Z,1015.31
2017-09-02T19:55:53.143Z,1015.32
2017-09-02T19:57:55.334Z,1015.28
2017-09-02T19:59:57.101Z,1015.28
2017-09-02T20:01:58.634Z,1015.23
2017-09-02T20:04:00.143Z,1015.20
2017-09-02T20:06:01.686Z,1015.16
2017-09-02T20:08:03.243Z,1015.17
2017-09-02T20:10:04.809Z,1015.26
2017-09-02T20:12:06.567Z,1015.22
2017-09-02T20:14:08.105Z,1015.17
2017-09-02T20:16:09.877Z,1015.19
2017-09-02T20:18:11.716Z,1015.17
2017-09-02T20:20:13.475Z,1015.16
2017-09-02T20:22:15.077Z,1015.17
2017-09-02T20:24:16.574Z,1015.15
2017-09-02T20:26:18.188Z,1015.13
2017-09-02T20:28:19.671Z,1015.14
2017-09-02T20:30:21.189Z,1015.13
2017-09-02T20:32:22.707Z,1015.14
2017-09-02T20:34:24.240Z,1015.11
2017-09-02T20:36:25.993Z,1015.11
2017-09-02T20:38:27.536Z,1015.11
2017-09-02T20:40:29.652Z,1015.11
2017-09-02T20:42:31.760Z,1015.12
2017-09-02T20:44:33.248Z,1015.16
2017-09-02T20:46:34.990Z,1015.09
2017-09-02T20:48:36.557Z,1015.10
2017-09-02T20:50:38.266Z,1015.08
2017-09-02T20:52:39.835Z,1015.13
2017-09-02T20:54:41.404Z,1015.15
2017-09-02T20:56:42.963Z,1015.17
2017-09-02T20:58:44.478Z,1015.14
2017-09-02T21:00:46.703Z,1015.19
2017-09-02T21:02:48.252Z,1015.19
2017-09-02T21:04:50.150Z,1015.17
2017-09-02T21:06:51.628Z,1015.20
2017-09-02T21:08:53.162Z,1015.20
2017-09-02T21:10:56.978Z,1015.22
2017-09-02T21:13:00.022Z,1015.22
2017-09-02T21:15:01.997Z,1015.25
2017-09-02T21:17:05.389Z,1015.26
2017-09-02T21:19:08.334Z,1015.26
2017-09-02T21:21:09.925Z,1015.28
2017-09-02T21:23:11.837Z,1015.31
2017-09-02T21:25:13.364Z,1015.29
2017-09-02T21:27:14.927Z,1015.28
2017-09-02T21:29:16.560Z,1015.27
2017-09-02T21:31:18.112Z,1015.30
2017-09-02T21:33:19.609Z,1015.26
2017-09-02T21:35:23.174Z,1015.25
2017-09-02T21:37:24.800Z,1015.24
2017-09-02T21:39:29.296Z,1015.21
2017-09-02T21:41:31.045Z,1015.23
2017-09-02T21:43:32.491Z,1015.23
2017-09-02T21:45:34.068Z,1015.22
2017-09-02T21:47:35.554Z,1015.18
2017-09-02T21:49:37.087Z,1015.17
2017-09-02T21:51:38.594Z,1015.16
2017-09-02T21:53:40.193Z,1015.13
2017-09-02T21:55:41.712Z,1015.09
2017-09-02T21:57:45.098Z,1015.11
2017-09-02T21:59:46.505Z,1015.11
2017-09-02T22:01:48.037Z,1015.11
2017-09-02T22:03:50.961Z,1015.18
2017-09-02T22:05:52.492Z,1015.14
2017-09-02T22:07:53.988Z,1015.12
2017-09-02T22:09:55.510Z,1015.08
2017-09-02T22:11:57.056Z,1015.12
2017-09-02T22:13:58.589Z,1015.14
2017-09-02T22:16:00.178Z,1015.18
2017-09-02T22:18:02.914Z,1015.15
2017-09-02T22:20:04.518Z,1015.14
2017-09-02T22:22:07.187Z,1015.17
2017-09-02T22:24:08.617Z,1015.18
2017-09-02T22:26:11.135Z,1015.21
2017-09-02T22:28:13.068Z,1015.22
2017-09-02T22:30:15.002Z,1015.22
2017-09-02T22:32:16.950Z,1015.17
2017-09-02T22:34:18.481Z,1015.14
2017-09-02T22:36:20.910Z,1015.15
2017-09-02T22:38:23.102Z,1015.08
2017-09-02T22:40:25.016Z,1015.14
2017-09-02T22:42:26.974Z,1015.16
2017-09-02T22:44:28.825Z,1015.18
2017-09-02T22:46:30.731Z,1015.16
2017-09-02T22:48:32.727Z,1015.18
2017-09-02T22:50:35.229Z,1015.16
2017-09-02T22:52:36.686Z,1015.18
2017-09-02T22:54:38.164Z,1015.18
2017-09-02T22:56:39.689Z,1015.19
2017-09-02T22:58:41.241Z,1015.18
2017-09-02T23:00:42.745Z,1015.14
2017-09-02T23:02:44.258Z,1015.17
2017-09-02T23:04:45.846Z,1015.15
2017-09-02T23:06:48.258Z,1015.18
2017-09-02T23:08:49.641Z,1015.21
2017-09-02T23:10:51.152Z,1015.22
2017-09-02T23:12:52.760Z,1015.18
2017-09-02T23:14:54.299Z,1015.19
2017-09-02T23:16:55.788Z,1015.18
2017-09-02T23:18:58.381Z,1015.20
2017-09-02T23:20:59.858Z,1015.20
2017-09-02T23:23:01.438Z,1015.20
2017-09-02T23:25:03.033Z,1015.18
2017-09-02T23:27:05.456Z,1015.14
2017-09-02T23:29:06.896Z,1015.10
2017-09-02T23:31:08.393Z,1015.07
2017-09-02T23:33:10.909Z,1015.09
2017-09-02T23:35:13.486Z,1015.07
2017-09-02T23:37:14.963Z,1015.09
2017-09-02T23:39:16.476Z,1015.09
2017-09-02T23:41:19.017Z,1015.09
2017-09-02T23:43:20.892Z,1015.09
2017-09-02T23:45:23.275Z,1015.08
2017-09-02T23:47:24.866Z,1015.05
2017-09-02T23:49:26.388Z,1015.04
2017-09-02T23:51:27.898Z,1015.03
2017-09-02T23:53:29.472Z,1015.03
2017-09-02T23:55:30.998Z,1014.99
2017-09-02T23:57:32.633Z,1014.92
2017-09-02T23:59:34.223Z,1014.96
